Flugplatz Schweighofen

Für EDRO sind keine METAR/TAF Berichte vorhanden.
Es werden die Flugwettermeldungen vom Flugplatz Karlsruhe Baden-Baden in 28 km Entfernung angezeigt.

Bericht für EDSB

vom 20.10. um 03:50 UTC

Wind 9 kt aus 230°

Sichtweite 10 km oder mehr

gute Sicht, keine Wolken < 5000 ft, keine CB, keine Wettererscheinungen (CAVOK)

Temperatur 12.0°C

Taupunkt 8.0°C

Luftfeuchtigkeit 76%

Luftdruck 1016 hPa

EDSB 200350Z 23009KT CAVOK 12/08 Q1016

Prognose für EDSB

vom 19.10. um 23:00 UTC

Zwischen 00:00 UTC und 07:00 UTC

Wind 6 kt aus 210°

Sichtweite 10 km oder mehr

keine signifikanten Wettererscheinungen

keine Wolken


Zwischen 07:00 und 10:00 UTC übergehend zu

Wind 15 kt aus 210° in Böen 25 kt

Sichtweite 10 km oder mehr

keine signifikanten Wettererscheinungen

keine Wolken


Zwischen 17:00 UTC und 21:00 UTC zeitweise

Regenschauer

aufgebrochene Bewölkung in 2000 ft

TAF EDSB 192300Z 2000/2024 21006KT CAVOK BECMG 2007/2010 21015G25KT TEMPO 2017/2021 SHRA BKN020TCU
Impressum